sensor_id;sensor_type;location;lat;lon;timestamp;pressure;altitude;pressure_sealevel;temperature;humidity
71948;BME280;63257;55.082;38.772;2023-04-21T00:00:53;99931.19;;;7.68;47.90
71948;BME280;63257;55.082;38.772;2023-04-21T00:03:20;99912.66;;;7.50;48.11
71948;BME280;63257;55.082;38.772;2023-04-21T00:05:49;99934.16;;;7.60;48.63
71948;BME280;63257;55.082;38.772;2023-04-21T00:08:16;99931.75;;;7.54;48.38
71948;BME280;63257;55.082;38.772;2023-04-21T00:10:42;99909.66;;;7.37;48.41
71948;BME280;63257;55.082;38.772;2023-04-21T00:13:08;99928.88;;;7.39;48.53
71948;BME280;63257;55.082;38.772;2023-04-21T00:15:35;99920.44;;;7.31;48.31
71948;BME280;63257;55.082;38.772;2023-04-21T00:18:01;99917.00;;;7.29;48.39
71948;BME280;63257;55.082;38.772;2023-04-21T00:20:29;99928.31;;;7.31;48.36
71948;BME280;63257;55.082;38.772;2023-04-21T00:22:55;99903.66;;;7.13;48.07
71948;BME280;63257;55.082;38.772;2023-04-21T00:25:22;99922.75;;;7.17;47.84
71948;BME280;63257;55.082;38.772;2023-04-21T00:27:49;99926.81;;;7.24;48.67
71948;BME280;63257;55.082;38.772;2023-04-21T00:30:15;99933.94;;;7.22;48.32
71948;BME280;63257;55.082;38.772;2023-04-21T00:32:41;99921.91;;;7.16;48.38
71948;BME280;63257;55.082;38.772;2023-04-21T00:35:07;99902.28;;;7.03;48.54
71948;BME280;63257;55.082;38.772;2023-04-21T00:37:33;99917.81;;;7.09;48.97
71948;BME280;63257;55.082;38.772;2023-04-21T00:39:59;99914.50;;;7.04;49.09
71948;BME280;63257;55.082;38.772;2023-04-21T00:42:25;99907.75;;;6.98;49.06
71948;BME280;63257;55.082;38.772;2023-04-21T00:44:51;99902.78;;;6.90;49.14
71948;BME280;63257;55.082;38.772;2023-04-21T00:47:17;99907.25;;;6.88;49.71
71948;BME280;63257;55.082;38.772;2023-04-21T00:49:44;99914.25;;;6.88;49.29
71948;BME280;63257;55.082;38.772;2023-04-21T00:52:10;99918.72;;;6.86;50.27
71948;BME280;63257;55.082;38.772;2023-04-21T00:54:37;99909.19;;;6.83;49.96
71948;BME280;63257;55.082;38.772;2023-04-21T00:57:04;99908.63;;;6.75;49.77
71948;BME280;63257;55.082;38.772;2023-04-21T00:59:32;99909.66;;;6.71;49.96
71948;BME280;63257;55.082;38.772;2023-04-21T01:01:58;99926.97;;;6.75;50.58
71948;BME280;63257;55.082;38.772;2023-04-21T01:04:24;99914.19;;;6.66;50.46
71948;BME280;63257;55.082;38.772;2023-04-21T01:06:50;99908.22;;;6.62;50.44
71948;BME280;63257;55.082;38.772;2023-04-21T01:09:16;99916.06;;;6.62;50.52
71948;BME280;63257;55.082;38.772;2023-04-21T01:12:02;99913.41;;;6.64;50.81
71948;BME280;63257;55.082;38.772;2023-04-21T01:14:29;99838.19;;;6.18;50.97
71948;BME280;63257;55.082;38.772;2023-04-21T01:16:56;99903.34;;;6.53;50.59
71948;BME280;63257;55.082;38.772;2023-04-21T01:19:22;99912.72;;;6.58;50.10
71948;BME280;63257;55.082;38.772;2023-04-21T01:21:50;99915.47;;;6.55;50.59
71948;BME280;63257;55.082;38.772;2023-04-21T01:24:23;99905.44;;;6.43;51.31
71948;BME280;63257;55.082;38.772;2023-04-21T01:26:51;99909.69;;;6.45;51.77
71948;BME280;63257;55.082;38.772;2023-04-21T01:29:17;99909.75;;;6.44;51.98
71948;BME280;63257;55.082;38.772;2023-04-21T01:31:43;99914.47;;;6.34;52.72
71948;BME280;63257;55.082;38.772;2023-04-21T01:34:12;99917.53;;;6.22;52.02
71948;BME280;63257;55.082;38.772;2023-04-21T01:36:38;99911.66;;;6.15;52.03
71948;BME280;63257;55.082;38.772;2023-04-21T01:39:04;99900.59;;;6.07;52.51
71948;BME280;63257;55.082;38.772;2023-04-21T01:41:29;99912.63;;;6.13;52.48
71948;BME280;63257;55.082;38.772;2023-04-21T01:43:55;99914.50;;;6.09;52.44
71948;BME280;63257;55.082;38.772;2023-04-21T01:46:23;99903.38;;;6.02;52.84
71948;BME280;63257;55.082;38.772;2023-04-21T01:48:49;99907.63;;;6.06;52.04
71948;BME280;63257;55.082;38.772;2023-04-21T01:51:15;99904.16;;;6.06;51.17
71948;BME280;63257;55.082;38.772;2023-04-21T01:53:40;99906.59;;;6.10;50.59
71948;BME280;63257;55.082;38.772;2023-04-21T01:56:06;99884.38;;;5.95;50.63
71948;BME280;63257;55.082;38.772;2023-04-21T01:58:32;99888.63;;;6.00;50.16
71948;BME280;63257;55.082;38.772;2023-04-21T02:00:58;99907.28;;;6.16;50.18
71948;BME280;63257;55.082;38.772;2023-04-21T02:03:24;99902.13;;;6.13;50.47
71948;BME280;63257;55.082;38.772;2023-04-21T02:05:49;99885.88;;;6.03;49.83
71948;BME280;63257;55.082;38.772;2023-04-21T02:08:16;99885.84;;;6.04;49.01
71948;BME280;63257;55.082;38.772;2023-04-21T02:10:42;99888.25;;;6.10;48.60
71948;BME280;63257;55.082;38.772;2023-04-21T02:13:11;99880.50;;;6.07;48.43
71948;BME280;63257;55.082;38.772;2023-04-21T02:15:38;99903.75;;;6.17;49.08
71948;BME280;63257;55.082;38.772;2023-04-21T02:18:05;99902.91;;;6.16;48.64
71948;BME280;63257;55.082;38.772;2023-04-21T02:20:31;99896.88;;;6.14;49.57
71948;BME280;63257;55.082;38.772;2023-04-21T02:22:57;99901.34;;;6.10;49.04
71948;BME280;63257;55.082;38.772;2023-04-21T02:25:23;99897.97;;;6.07;48.90
71948;BME280;63257;55.082;38.772;2023-04-21T02:27:49;99890.47;;;5.98;48.72
71948;BME280;63257;55.082;38.772;2023-04-21T02:30:14;99888.78;;;5.95;48.95
71948;BME280;63257;55.082;38.772;2023-04-21T02:32:41;99898.22;;;6.01;48.03
71948;BME280;63257;55.082;38.772;2023-04-21T02:35:08;99907.63;;;6.06;46.91
71948;BME280;63257;55.082;38.772;2023-04-21T02:37:34;99898.16;;;6.02;47.37
71948;BME280;63257;55.082;38.772;2023-04-21T02:39:59;99910.28;;;6.05;47.72
71948;BME280;63257;55.082;38.772;2023-04-21T02:42:25;99884.59;;;5.89;47.05
71948;BME280;63257;55.082;38.772;2023-04-21T02:44:51;99905.16;;;6.02;46.70
71948;BME280;63257;55.082;38.772;2023-04-21T02:47:17;99902.56;;;6.00;46.55
71948;BME280;63257;55.082;38.772;2023-04-21T02:49:43;99901.72;;;6.00;46.30
71948;BME280;63257;55.082;38.772;2023-04-21T02:52:11;99904.44;;;5.97;46.60
71948;BME280;63257;55.082;38.772;2023-04-21T02:54:37;99906.06;;;6.01;46.35
71948;BME280;63257;55.082;38.772;2023-04-21T02:57:03;99906.84;;;6.03;45.99
71948;BME280;63257;55.082;38.772;2023-04-21T02:59:29;99904.22;;;6.03;45.73
71948;BME280;63257;55.082;38.772;2023-04-21T03:01:58;99865.50;;;5.86;45.12
71948;BME280;63257;55.082;38.772;2023-04-21T03:04:24;99906.06;;;6.01;45.86
71948;BME280;63257;55.082;38.772;2023-04-21T03:06:51;99900.88;;;5.99;45.81
71948;BME280;63257;55.082;38.772;2023-04-21T03:09:17;99894.72;;;6.00;45.51
71948;BME280;63257;55.082;38.772;2023-04-21T03:11:43;99905.09;;;6.03;45.27
71948;BME280;63257;55.082;38.772;2023-04-21T03:14:09;99882.59;;;5.96;44.61
71948;BME280;63257;55.082;38.772;2023-04-21T03:16:34;99911.03;;;6.08;45.03
71948;BME280;63257;55.082;38.772;2023-04-21T03:19:00;99907.56;;;6.08;44.53
71948;BME280;63257;55.082;38.772;2023-04-21T03:21:27;99906.66;;;6.09;44.17
71948;BME280;63257;55.082;38.772;2023-04-21T03:23:53;99904.88;;;6.09;43.72
71948;BME280;63257;55.082;38.772;2023-04-21T03:26:19;99906.78;;;6.04;43.84
71948;BME280;63257;55.082;38.772;2023-04-21T03:28:45;99910.94;;;6.11;43.74
71948;BME280;63257;55.082;38.772;2023-04-21T03:31:12;99914.19;;;6.18;43.82
71948;BME280;63257;55.082;38.772;2023-04-21T03:33:37;99881.59;;;6.02;43.23
71948;BME280;63257;55.082;38.772;2023-04-21T03:36:03;99883.00;;;6.10;43.15
71948;BME280;63257;55.082;38.772;2023-04-21T03:38:29;99894.06;;;6.19;42.69
71948;BME280;63257;55.082;38.772;2023-04-21T03:40:55;99901.81;;;6.22;42.35
71948;BME280;63257;55.082;38.772;2023-04-21T03:43:24;99896.63;;;6.20;42.81
71948;BME280;63257;55.082;38.772;2023-04-21T03:45:50;99902.50;;;6.27;41.76
71948;BME280;63257;55.082;38.772;2023-04-21T03:48:18;99897.22;;;6.28;41.98
71948;BME280;63257;55.082;38.772;2023-04-21T03:50:43;99893.56;;;6.33;42.01
71948;BME280;63257;55.082;38.772;2023-04-21T03:53:09;99883.97;;;6.32;41.67
71948;BME280;63257;55.082;38.772;2023-04-21T03:55:35;99896.00;;;6.37;41.81
71948;BME280;63257;55.082;38.772;2023-04-21T03:58:01;99895.84;;;6.42;42.21
71948;BME280;63257;55.082;38.772;2023-04-21T04:00:27;99894.91;;;6.44;41.43
71948;BME280;63257;55.082;38.772;2023-04-21T04:02:53;99902.47;;;6.52;41.73
71948;BME280;63257;55.082;38.772;2023-04-21T04:05:19;99893.63;;;6.55;41.95
71948;BME280;63257;55.082;38.772;2023-04-21T04:07:44;99895.28;;;6.57;41.13
71948;BME280;63257;55.082;38.772;2023-04-21T04:10:10;99893.16;;;6.67;41.81
71948;BME280;63257;55.082;38.772;2023-04-21T04:12:36;99891.16;;;6.74;41.43
71948;BME280;63257;55.082;38.772;2023-04-21T04:15:02;99875.06;;;6.61;40.53
71948;BME280;63257;55.082;38.772;2023-04-21T04:17:30;99897.78;;;6.84;40.68
71948;BME280;63257;55.082;38.772;2023-04-21T04:19:56;99893.19;;;6.89;40.12
71948;BME280;63257;55.082;38.772;2023-04-21T04:22:22;99892.91;;;6.97;40.13
71948;BME280;63257;55.082;38.772;2023-04-21T04:24:47;99878.88;;;6.98;40.06
71948;BME280;63257;55.082;38.772;2023-04-21T04:27:13;99890.47;;;7.15;39.54
71948;BME280;63257;55.082;38.772;2023-04-21T04:29:39;99890.88;;;7.26;40.09
71948;BME280;63257;55.082;38.772;2023-04-21T04:32:06;99864.03;;;7.19;40.26
71948;BME280;63257;55.082;38.772;2023-04-21T04:34:38;99889.19;;;7.45;40.41
71948;BME280;63257;55.082;38.772;2023-04-21T04:37:04;99883.66;;;7.53;40.11
71948;BME280;63257;55.082;38.772;2023-04-21T04:39:31;99865.25;;;7.53;39.63
71948;BME280;63257;55.082;38.772;2023-04-21T04:41:57;99876.75;;;7.71;39.30
71948;BME280;63257;55.082;38.772;2023-04-21T04:44:23;99879.78;;;7.82;40.32
71948;BME280;63257;55.082;38.772;2023-04-21T04:46:57;99879.31;;;7.93;40.30
71948;BME280;63257;55.082;38.772;2023-04-21T04:49:23;99879.63;;;8.06;39.93
71948;BME280;63257;55.082;38.772;2023-04-21T04:51:49;99872.22;;;8.16;41.02
71948;BME280;63257;55.082;38.772;2023-04-21T04:54:14;99881.53;;;8.23;40.08
71948;BME280;63257;55.082;38.772;2023-04-21T04:56:40;99875.22;;;8.27;39.57
71948;BME280;63257;55.082;38.772;2023-04-21T04:59:06;99876.41;;;8.39;39.59
71948;BME280;63257;55.082;38.772;2023-04-21T05:01:32;99874.19;;;8.51;39.38
71948;BME280;63257;55.082;38.772;2023-04-21T05:03:58;99847.91;;;8.51;39.20
71948;BME280;63257;55.082;38.772;2023-04-21T05:06:24;99868.78;;;8.73;38.90
71948;BME280;63257;55.082;38.772;2023-04-21T05:08:53;99862.94;;;8.85;39.39
71948;BME280;63257;55.082;38.772;2023-04-21T05:11:19;99843.72;;;8.83;38.89
71948;BME280;63257;55.082;38.772;2023-04-21T05:13:45;99849.69;;;9.06;38.17
71948;BME280;63257;55.082;38.772;2023-04-21T05:16:11;99862.09;;;9.21;38.44
71948;BME280;63257;55.082;38.772;2023-04-21T05:18:37;99861.41;;;9.35;37.47
71948;BME280;63257;55.082;38.772;2023-04-21T05:21:03;99859.03;;;9.48;37.28
71948;BME280;63257;55.082;38.772;2023-04-21T05:23:29;99859.34;;;9.59;37.62
71948;BME280;63257;55.082;38.772;2023-04-21T05:25:55;99848.34;;;9.68;37.33
71948;BME280;63257;55.082;38.772;2023-04-21T05:28:21;99850.19;;;9.84;37.08
71948;BME280;63257;55.082;38.772;2023-04-21T05:30:47;99838.28;;;9.93;36.03
71948;BME280;63257;55.082;38.772;2023-04-21T05:33:13;99848.81;;;10.10;34.71
71948;BME280;63257;55.082;38.772;2023-04-21T05:35:39;99830.19;;;10.13;34.89
71948;BME280;63257;55.082;38.772;2023-04-21T05:38:05;99845.78;;;10.34;34.37
71948;BME280;63257;55.082;38.772;2023-04-21T05:40:31;99848.66;;;10.47;33.98
71948;BME280;63257;55.082;38.772;2023-04-21T05:42:57;99835.91;;;10.55;33.95
71948;BME280;63257;55.082;38.772;2023-04-21T05:45:23;99837.69;;;10.71;33.40
71948;BME280;63257;55.082;38.772;2023-04-21T05:47:49;99845.84;;;10.82;32.86
71948;BME280;63257;55.082;38.772;2023-04-21T05:50:15;99832.06;;;10.93;33.03
71948;BME280;63257;55.082;38.772;2023-04-21T05:52:41;99837.31;;;11.09;32.20
71948;BME280;63257;55.082;38.772;2023-04-21T05:55:07;99830.56;;;11.19;31.87
71948;BME280;63257;55.082;38.772;2023-04-21T05:57:33;99834.38;;;11.29;31.76
71948;BME280;63257;55.082;38.772;2023-04-21T05:59:58;99831.69;;;11.45;30.95
71948;BME280;63257;55.082;38.772;2023-04-21T06:02:24;99822.94;;;11.59;30.35
71948;BME280;63257;55.082;38.772;2023-04-21T06:04:50;99838.44;;;11.80;30.18
71948;BME280;63257;55.082;38.772;2023-04-21T06:07:16;99826.13;;;11.95;28.97
71948;BME280;63257;55.082;38.772;2023-04-21T06:09:42;99831.25;;;12.12;27.39
71948;BME280;63257;55.082;38.772;2023-04-21T06:12:09;99830.09;;;12.31;26.18
71948;BME280;63257;55.082;38.772;2023-04-21T06:14:35;99822.97;;;12.46;24.24
71948;BME280;63257;55.082;38.772;2023-04-21T06:17:01;99821.56;;;12.54;23.43
71948;BME280;63257;55.082;38.772;2023-04-21T06:19:27;99830.81;;;12.62;23.29
71948;BME280;63257;55.082;38.772;2023-04-21T06:21:53;99821.94;;;12.63;23.64
71948;BME280;63257;55.082;38.772;2023-04-21T06:24:20;99814.97;;;12.75;23.42
71948;BME280;63257;55.082;38.772;2023-04-21T06:26:51;99826.28;;;12.91;23.15
71948;BME280;63257;55.082;38.772;2023-04-21T06:29:17;99816.25;;;12.96;23.04
71948;BME280;63257;55.082;38.772;2023-04-21T06:35:52;99818.78;;;13.25;23.88
71948;BME280;63257;55.082;38.772;2023-04-21T06:38:18;99805.13;;;13.31;23.12
71948;BME280;63257;55.082;38.772;2023-04-21T06:40:44;99784.22;;;13.27;22.95
71948;BME280;63257;55.082;38.772;2023-04-21T06:43:10;99808.78;;;13.43;22.95
71948;BME280;63257;55.082;38.772;2023-04-21T06:45:36;99807.72;;;13.46;22.95
71948;BME280;63257;55.082;38.772;2023-04-21T06:48:02;99817.38;;;13.47;23.02
71948;BME280;63257;55.082;38.772;2023-04-21T06:50:28;99818.00;;;13.37;22.27
71948;BME280;63257;55.082;38.772;2023-04-21T06:52:53;99808.66;;;13.45;22.61
71948;BME280;63257;55.082;38.772;2023-04-21T06:55:19;99804.44;;;13.55;22.90
71948;BME280;63257;55.082;38.772;2023-04-21T06:57:46;99796.38;;;13.56;22.77
71948;BME280;63257;55.082;38.772;2023-04-21T07:00:15;99794.16;;;13.63;22.96
71948;BME280;63257;55.082;38.772;2023-04-21T07:02:41;99791.09;;;13.69;22.37
71948;BME280;63257;55.082;38.772;2023-04-21T07:05:06;99771.34;;;13.73;23.10
71948;BME280;63257;55.082;38.772;2023-04-21T07:07:33;99804.66;;;14.03;22.89
71948;BME280;63257;55.082;38.772;2023-04-21T07:09:58;99790.44;;;13.91;22.53
71948;BME280;63257;55.082;38.772;2023-04-21T07:12:24;99799.34;;;13.78;22.22
71948;BME280;63257;55.082;38.772;2023-04-21T07:14:50;99788.66;;;13.66;22.14
71948;BME280;63257;55.082;38.772;2023-04-21T07:17:16;99795.53;;;13.82;22.90
71948;BME280;63257;55.082;38.772;2023-04-21T07:19:43;99761.19;;;13.67;22.65
71948;BME280;63257;55.082;38.772;2023-04-21T07:22:08;99782.19;;;13.70;22.71
71948;BME280;63257;55.082;38.772;2023-04-21T07:24:34;99782.09;;;13.85;22.63
71948;BME280;63257;55.082;38.772;2023-04-21T07:27:01;99781.97;;;13.99;22.03
71948;BME280;63257;55.082;38.772;2023-04-21T07:29:28;99777.50;;;14.13;22.62
71948;BME280;63257;55.082;38.772;2023-04-21T07:31:54;99754.59;;;13.99;22.41
71948;BME280;63257;55.082;38.772;2023-04-21T07:34:20;99774.91;;;14.24;22.27
71948;BME280;63257;55.082;38.772;2023-04-21T07:36:46;99758.16;;;14.23;22.73
71948;BME280;63257;55.082;38.772;2023-04-21T07:39:12;99770.72;;;14.46;22.63
71948;BME280;63257;55.082;38.772;2023-04-21T07:41:38;99706.34;;;14.18;22.49
71948;BME280;63257;55.082;38.772;2023-04-21T07:44:04;99759.47;;;14.42;22.54
71948;BME280;63257;55.082;38.772;2023-04-21T07:46:30;99772.03;;;14.40;21.88
71948;BME280;63257;55.082;38.772;2023-04-21T07:48:57;99707.59;;;13.88;22.08
71948;BME280;63257;55.082;38.772;2023-04-21T07:51:25;99771.31;;;14.49;21.91
71948;BME280;63257;55.082;38.772;2023-04-21T07:53:52;99764.75;;;14.55;21.90
71948;BME280;63257;55.082;38.772;2023-04-21T07:56:18;99761.44;;;14.64;22.36
71948;BME280;63257;55.082;38.772;2023-04-21T07:58:44;99746.16;;;14.55;21.85
71948;BME280;63257;55.082;38.772;2023-04-21T08:01:10;99759.53;;;14.66;21.78
71948;BME280;63257;55.082;38.772;2023-04-21T08:03:37;99751.59;;;14.78;21.99
71948;BME280;63257;55.082;38.772;2023-04-21T08:10:27;99742.38;;;14.95;22.32
71948;BME280;63257;55.082;38.772;2023-04-21T08:12:53;99748.69;;;15.05;21.93
71948;BME280;63257;55.082;38.772;2023-04-21T08:15:20;99724.13;;;14.90;21.52
71948;BME280;63257;55.082;38.772;2023-04-21T08:17:46;99714.13;;;14.93;21.16
71948;BME280;63257;55.082;38.772;2023-04-21T08:20:12;99730.81;;;15.07;21.72
71948;BME280;63257;55.082;38.772;2023-04-21T08:22:38;99739.03;;;15.04;21.30
71948;BME280;63257;55.082;38.772;2023-04-21T08:25:04;99718.81;;;14.90;20.41
71948;BME280;63257;55.082;38.772;2023-04-21T08:31:57;99731.44;;;15.10;19.66
71948;BME280;63257;55.082;38.772;2023-04-21T08:34:23;99725.44;;;15.20;19.82
71948;BME280;63257;55.082;38.772;2023-04-21T08:36:49;99724.22;;;15.13;19.69
71948;BME280;63257;55.082;38.772;2023-04-21T08:39:15;99718.91;;;15.13;19.60
71948;BME280;63257;55.082;38.772;2023-04-21T08:41:41;99733.91;;;15.25;19.16
71948;BME280;63257;55.082;38.772;2023-04-21T08:44:08;99666.75;;;14.87;19.51
71948;BME280;63257;55.082;38.772;2023-04-21T08:46:35;99703.69;;;15.26;20.04
71948;BME280;63257;55.082;38.772;2023-04-21T08:49:01;99716.84;;;15.27;20.46
71948;BME280;63257;55.082;38.772;2023-04-21T08:51:27;99686.91;;;15.25;20.35
71948;BME280;63257;55.082;38.772;2023-04-21T08:53:55;99699.63;;;15.56;19.98
71948;BME280;63257;55.082;38.772;2023-04-21T08:56:47;99697.06;;;15.77;19.83
71948;BME280;63257;55.082;38.772;2023-04-21T08:59:13;99677.63;;;15.54;20.00
71948;BME280;63257;55.082;38.772;2023-04-21T09:04:45;99654.53;;;15.66;19.75
71948;BME280;63257;55.082;38.772;2023-04-21T09:07:29;99686.44;;;15.77;20.10
71948;BME280;63257;55.082;38.772;2023-04-21T09:09:57;99685.63;;;15.54;20.47
71948;BME280;63257;55.082;38.772;2023-04-21T09:12:24;99675.56;;;15.57;20.20
71948;BME280;63257;55.082;38.772;2023-04-21T09:18:58;99654.91;;;15.61;20.71
71948;BME280;63257;55.082;38.772;2023-04-21T09:21:27;99657.81;;;15.58;20.45
71948;BME280;63257;55.082;38.772;2023-04-21T09:23:53;99642.31;;;15.74;20.55
71948;BME280;63257;55.082;38.772;2023-04-21T09:26:22;99644.50;;;15.69;20.34
71948;BME280;63257;55.082;38.772;2023-04-21T09:28:49;99660.69;;;15.77;20.31
71948;BME280;63257;55.082;38.772;2023-04-21T09:31:17;99663.81;;;15.71;20.01
71948;BME280;63257;55.082;38.772;2023-04-21T09:33:55;99666.00;;;16.00;20.06
71948;BME280;63257;55.082;38.772;2023-04-21T09:36:24;99631.19;;;15.81;19.34
71948;BME280;63257;55.082;38.772;2023-04-21T09:41:20;99649.28;;;16.09;19.39
71948;BME280;63257;55.082;38.772;2023-04-21T09:43:49;99635.13;;;16.20;19.68
71948;BME280;63257;55.082;38.772;2023-04-21T09:46:16;99632.69;;;16.50;20.37
71948;BME280;63257;55.082;38.772;2023-04-21T09:48:44;99631.72;;;16.83;19.68
71948;BME280;63257;55.082;38.772;2023-04-21T09:51:15;99638.22;;;16.90;19.56
71948;BME280;63257;55.082;38.772;2023-04-21T09:53:43;99649.50;;;16.83;18.78
71948;BME280;63257;55.082;38.772;2023-04-21T09:56:15;99630.56;;;16.43;19.50
71948;BME280;63257;55.082;38.772;2023-04-21T09:58:52;99580.47;;;15.93;19.57
71948;BME280;63257;55.082;38.772;2023-04-21T10:01:19;99559.53;;;16.00;19.94
71948;BME280;63257;55.082;38.772;2023-04-21T10:03:47;99573.03;;;16.20;18.92
71948;BME280;63257;55.082;38.772;2023-04-21T10:06:14;99601.88;;;16.68;19.10
71948;BME280;63257;55.082;38.772;2023-04-21T10:08:43;99571.13;;;16.64;19.06
71948;BME280;63257;55.082;38.772;2023-04-21T10:11:09;99579.88;;;16.76;18.30
71948;BME280;63257;55.082;38.772;2023-04-21T10:13:36;99544.94;;;16.69;18.26
71948;BME280;63257;55.082;38.772;2023-04-21T10:16:07;99566.44;;;16.56;18.98
71948;BME280;63257;55.082;38.772;2023-04-21T10:18:44;99554.91;;;16.35;19.28
71948;BME280;63257;55.082;38.772;2023-04-21T10:21:15;99582.34;;;16.68;20.17
71948;BME280;63257;55.082;38.772;2023-04-21T10:23:45;99558.78;;;16.42;19.37
71948;BME280;63257;55.082;38.772;2023-04-21T10:26:12;99593.88;;;16.68;19.12
71948;BME280;63257;55.082;38.772;2023-04-21T10:31:22;99594.81;;;17.00;18.94
71948;BME280;63257;55.082;38.772;2023-04-21T10:39:36;99518.44;;;16.47;19.11
71948;BME280;63257;55.082;38.772;2023-04-21T10:45:22;99533.41;;;16.69;19.16
71948;BME280;63257;55.082;38.772;2023-04-21T10:47:38;99561.31;;;16.43;18.80
71948;BME280;63257;55.082;38.772;2023-04-21T10:50:16;99550.00;;;16.51;18.94
71948;BME280;63257;55.082;38.772;2023-04-21T10:52:51;99538.84;;;16.36;19.25
71948;BME280;63257;55.082;38.772;2023-04-21T10:55:18;99520.44;;;16.54;19.10
71948;BME280;63257;55.082;38.772;2023-04-21T10:57:49;99507.03;;;16.66;19.03
71948;BME280;63257;55.082;38.772;2023-04-21T11:00:18;99490.28;;;16.75;19.01
71948;BME280;63257;55.082;38.772;2023-04-21T11:02:58;99504.16;;;16.78;18.85
71948;BME280;63257;55.082;38.772;2023-04-21T11:05:38;99516.28;;;17.13;18.68
71948;BME280;63257;55.082;38.772;2023-04-21T11:08:07;99479.03;;;16.71;18.87
71948;BME280;63257;55.082;38.772;2023-04-21T11:10:54;99496.59;;;16.53;18.84
71948;BME280;63257;55.082;38.772;2023-04-21T11:13:25;99545.31;;;16.86;18.53
71948;BME280;63257;55.082;38.772;2023-04-21T11:16:03;99560.69;;;17.24;19.05
71948;BME280;63257;55.082;38.772;2023-04-21T11:18:37;99543.03;;;17.43;17.97
71948;BME280;63257;55.082;38.772;2023-04-21T11:21:09;99487.19;;;17.71;18.09
71948;BME280;63257;55.082;38.772;2023-04-21T11:23:38;99516.75;;;18.38;17.67
71948;BME280;63257;55.082;38.772;2023-04-21T11:26:05;99489.88;;;18.49;16.79
71948;BME280;63257;55.082;38.772;2023-04-21T11:28:31;99507.66;;;18.78;17.33
71948;BME280;63257;55.082;38.772;2023-04-21T11:30:57;99527.09;;;19.18;16.70
71948;BME280;63257;55.082;38.772;2023-04-21T11:33:41;99503.72;;;18.92;16.67
71948;BME280;63257;55.082;38.772;2023-04-21T11:36:07;99479.63;;;18.82;16.33
71948;BME280;63257;55.082;38.772;2023-04-21T11:38:39;99513.72;;;18.80;16.89
71948;BME280;63257;55.082;38.772;2023-04-21T11:41:09;99492.19;;;19.47;15.93
71948;BME280;63257;55.082;38.772;2023-04-21T11:43:36;99485.22;;;19.82;15.68
71948;BME280;63257;55.082;38.772;2023-04-21T11:46:15;99464.56;;;20.37;15.63
71948;BME280;63257;55.082;38.772;2023-04-21T11:48:42;99494.44;;;20.42;15.02
71948;BME280;63257;55.082;38.772;2023-04-21T11:51:17;99487.78;;;20.72;14.58
71948;BME280;63257;55.082;38.772;2023-04-21T11:53:46;99502.69;;;20.48;15.24
71948;BME280;63257;55.082;38.772;2023-04-21T11:56:16;99511.44;;;20.32;15.26
71948;BME280;63257;55.082;38.772;2023-04-21T11:58:45;99476.66;;;20.67;14.58
71948;BME280;63257;55.082;38.772;2023-04-21T12:01:15;99444.13;;;20.96;14.70
71948;BME280;63257;55.082;38.772;2023-04-21T12:03:41;99461.56;;;21.35;14.45
71948;BME280;63257;55.082;38.772;2023-04-21T12:06:07;99440.56;;;20.79;14.66
71948;BME280;63257;55.082;38.772;2023-04-21T12:08:33;99493.66;;;21.02;15.01
71948;BME280;63257;55.082;38.772;2023-04-21T12:11:01;99474.41;;;21.15;15.05
71948;BME280;63257;55.082;38.772;2023-04-21T12:13:30;99456.53;;;21.40;14.70
71948;BME280;63257;55.082;38.772;2023-04-21T12:15:57;99422.88;;;21.95;14.42
71948;BME280;63257;55.082;38.772;2023-04-21T12:18:30;99448.31;;;20.91;14.63
71948;BME280;63257;55.082;38.772;2023-04-21T12:21:00;99476.44;;;20.87;14.20
71948;BME280;63257;55.082;38.772;2023-04-21T12:23:26;99440.44;;;20.63;14.33
71948;BME280;63257;55.082;38.772;2023-04-21T12:25:52;99470.41;;;20.58;14.83
71948;BME280;63257;55.082;38.772;2023-04-21T12:28:18;99454.94;;;20.26;14.93
71948;BME280;63257;55.082;38.772;2023-04-21T12:30:44;99436.03;;;20.54;15.07
71948;BME280;63257;55.082;38.772;2023-04-21T12:33:11;99484.44;;;21.13;15.16
71948;BME280;63257;55.082;38.772;2023-04-21T12:35:37;99473.38;;;20.73;14.62
71948;BME280;63257;55.082;38.772;2023-04-21T12:38:06;99465.09;;;20.66;14.99
71948;BME280;63257;55.082;38.772;2023-04-21T12:40:34;99426.41;;;20.16;15.69
71948;BME280;63257;55.082;38.772;2023-04-21T12:43:00;99403.47;;;20.40;15.42
71948;BME280;63257;55.082;38.772;2023-04-21T12:45:26;99398.06;;;20.32;15.19
71948;BME280;63257;55.082;38.772;2023-04-21T12:47:54;99394.69;;;20.30;15.12
71948;BME280;63257;55.082;38.772;2023-04-21T12:50:21;99431.25;;;20.65;14.96
71948;BME280;63257;55.082;38.772;2023-04-21T12:52:47;99416.59;;;20.51;14.71
71948;BME280;63257;55.082;38.772;2023-04-21T12:55:16;99413.16;;;20.41;14.89
71948;BME280;63257;55.082;38.772;2023-04-21T12:57:42;99404.09;;;21.03;14.43
71948;BME280;63257;55.082;38.772;2023-04-21T13:00:09;99400.88;;;20.91;14.43
71948;BME280;63257;55.082;38.772;2023-04-21T13:02:37;99459.84;;;21.26;14.34
71948;BME280;63257;55.082;38.772;2023-04-21T13:05:08;99408.53;;;20.78;14.14
71948;BME280;63257;55.082;38.772;2023-04-21T13:07:36;99417.38;;;21.72;13.89
71948;BME280;63257;55.082;38.772;2023-04-21T13:10:03;99380.06;;;21.52;13.69
71948;BME280;63257;55.082;38.772;2023-04-21T13:12:32;99428.09;;;22.22;13.51
71948;BME280;63257;55.082;38.772;2023-04-21T13:14:58;99391.59;;;22.60;13.24
71948;BME280;63257;55.082;38.772;2023-04-21T13:17:25;99417.22;;;23.19;12.52
71948;BME280;63257;55.082;38.772;2023-04-21T13:19:51;99414.50;;;23.27;12.66
71948;BME280;63257;55.082;38.772;2023-04-21T13:22:17;99430.88;;;22.61;13.08
71948;BME280;63257;55.082;38.772;2023-04-21T13:24:43;99445.81;;;21.48;13.92
71948;BME280;63257;55.082;38.772;2023-04-21T13:27:11;99443.03;;;21.66;13.95
71948;BME280;63257;55.082;38.772;2023-04-21T13:29:37;99437.75;;;22.72;13.11